createdAt,value
2018-11-21T00:00:52.401Z,0.00
2018-11-21T00:01:52.441Z,0.00
2018-11-21T00:02:52.471Z,0.00
2018-11-21T00:03:52.510Z,0.00
2018-11-21T00:04:52.543Z,0.00
2018-11-21T00:05:52.581Z,0.00
2018-11-21T00:06:52.617Z,0.00
2018-11-21T00:07:52.656Z,0.00
2018-11-21T00:08:52.687Z,0.00
2018-11-21T00:09:52.720Z,0.00
2018-11-21T00:10:52.754Z,0.00
2018-11-21T00:11:52.791Z,0.00
2018-11-21T00:12:52.823Z,0.00
2018-11-21T00:13:52.862Z,0.00
2018-11-21T00:14:52.895Z,0.00
2018-11-21T00:15:52.984Z,0.00
2018-11-21T00:16:52.970Z,0.00
2018-11-21T00:17:53.001Z,0.00
2018-11-21T00:18:53.042Z,0.00
2018-11-21T00:19:53.072Z,0.00
2018-11-21T00:20:53.108Z,0.00
2018-11-21T00:21:53.144Z,0.00
2018-11-21T00:22:53.328Z,0.00
2018-11-21T00:23:53.213Z,0.00
2018-11-21T00:24:53.248Z,0.00
2018-11-21T00:25:53.293Z,0.00
2018-11-21T00:26:53.318Z,0.00
2018-11-21T00:27:53.354Z,0.00
2018-11-21T00:28:53.389Z,0.00
2018-11-21T00:29:53.457Z,0.00
2018-11-21T00:30:53.463Z,0.00
2018-11-21T00:31:53.494Z,0.00
2018-11-21T00:32:53.533Z,0.00
2018-11-21T00:33:53.567Z,0.00
2018-11-21T00:34:53.604Z,0.00
2018-11-21T00:35:53.636Z,0.00
2018-11-21T00:36:53.673Z,0.00
2018-11-21T00:37:53.707Z,0.00
2018-11-21T00:38:53.744Z,0.00
2018-11-21T00:39:53.776Z,0.00
2018-11-21T00:40:53.813Z,0.00
2018-11-21T00:41:53.848Z,0.00
2018-11-21T00:42:53.882Z,0.00
2018-11-21T00:43:53.919Z,0.00
2018-11-21T00:44:53.956Z,0.00
2018-11-21T00:45:53.991Z,0.00
2018-11-21T00:46:54.026Z,0.00
2018-11-21T00:47:54.060Z,0.00
2018-11-21T00:48:54.093Z,0.00
2018-11-21T00:49:54.129Z,0.00
2018-11-21T00:50:54.171Z,0.00
2018-11-21T00:51:54.259Z,0.00
2018-11-21T00:52:54.235Z,0.00
2018-11-21T00:53:54.274Z,0.00
2018-11-21T00:54:54.312Z,0.00
2018-11-21T00:55:54.341Z,0.00
2018-11-21T00:56:54.376Z,0.00
2018-11-21T00:57:54.411Z,0.00
2018-11-21T00:58:54.448Z,0.00
2018-11-21T00:59:54.480Z,0.00
2018-11-21T01:00:54.517Z,0.00
2018-11-21T01:01:54.550Z,0.00
2018-11-21T01:02:54.598Z,0.00
2018-11-21T01:03:54.617Z,0.00
2018-11-21T01:04:54.657Z,0.00
2018-11-21T01:05:54.692Z,0.00
2018-11-21T01:06:54.723Z,0.00
2018-11-21T01:07:54.757Z,0.00
2018-11-21T01:08:54.792Z,0.00
2018-11-21T01:09:54.827Z,0.00
2018-11-21T01:10:54.862Z,0.00
2018-11-21T01:11:54.897Z,0.00
2018-11-21T01:12:54.933Z,0.00
2018-11-21T01:13:54.967Z,0.00
2018-11-21T01:14:55.000Z,0.00
2018-11-21T01:15:55.036Z,0.00
2018-11-21T01:16:55.071Z,0.00
2018-11-21T01:17:55.107Z,0.00
2018-11-21T01:18:55.141Z,0.00
2018-11-21T01:19:55.183Z,0.00
2018-11-21T01:20:55.213Z,0.00
2018-11-21T01:21:55.251Z,0.00
2018-11-21T01:22:55.279Z,0.00
2018-11-21T01:23:55.313Z,0.00
2018-11-21T01:24:55.349Z,0.00
2018-11-21T01:25:55.384Z,0.00
2018-11-21T01:26:55.419Z,0.00
2018-11-21T01:27:55.454Z,0.00
2018-11-21T01:28:55.490Z,0.00
2018-11-21T01:29:55.524Z,0.00
2018-11-21T01:30:55.559Z,0.00
2018-11-21T01:31:55.592Z,0.00
2018-11-21T01:32:55.627Z,0.00
2018-11-21T01:33:55.663Z,0.00
2018-11-21T01:34:55.695Z,0.00
2018-11-21T01:35:55.741Z,0.00
2018-11-21T01:36:55.769Z,0.00
2018-11-21T01:37:55.800Z,0.00
2018-11-21T01:38:55.836Z,0.00
2018-11-21T01:39:55.914Z,0.00
2018-11-21T01:40:55.903Z,0.00
2018-11-21T01:41:55.992Z,0.00
2018-11-21T01:42:55.991Z,0.00
2018-11-21T01:43:56.015Z,0.00
2018-11-21T01:44:56.042Z,0.00
2018-11-21T01:45:56.076Z,0.00
2018-11-21T01:46:56.114Z,0.00
2018-11-21T01:47:56.146Z,0.00
2018-11-21T01:48:56.433Z,0.00
2018-11-21T01:49:56.216Z,0.00
2018-11-21T01:50:56.250Z,0.00
2018-11-21T01:51:56.289Z,0.00
2018-11-21T01:52:56.319Z,0.00
2018-11-21T01:53:56.359Z,0.00
2018-11-21T01:54:56.393Z,0.00
2018-11-21T01:55:56.423Z,0.00
2018-11-21T01:56:56.460Z,0.00
2018-11-21T01:57:56.505Z,0.00
2018-11-21T01:58:56.641Z,0.00
2018-11-21T01:59:56.563Z,0.00
2018-11-21T02:00:56.598Z,0.00
2018-11-21T02:01:56.633Z,0.00
2018-11-21T02:02:56.666Z,0.00
2018-11-21T02:03:56.707Z,0.00
2018-11-21T02:04:56.736Z,0.00
2018-11-21T02:05:56.775Z,0.00
2018-11-21T02:06:56.804Z,0.00
2018-11-21T02:07:56.846Z,0.00
2018-11-21T02:08:56.884Z,0.00
2018-11-21T02:09:56.942Z,0.00
2018-11-21T02:10:56.944Z,0.00
2018-11-21T02:11:56.978Z,0.00
2018-11-21T02:12:57.012Z,0.00
2018-11-21T02:13:57.049Z,0.00
2018-11-21T02:14:57.080Z,0.00
2018-11-21T02:15:57.115Z,0.00
2018-11-21T02:16:57.151Z,0.00
2018-11-21T02:17:57.186Z,0.00
2018-11-21T02:18:57.218Z,0.00
2018-11-21T02:19:57.262Z,0.00
2018-11-21T02:20:57.293Z,0.00
2018-11-21T02:21:57.328Z,0.00
2018-11-21T02:22:57.358Z,0.00
2018-11-21T02:23:57.394Z,0.00
2018-11-21T02:24:57.429Z,0.00
2018-11-21T02:25:57.463Z,0.00
2018-11-21T02:26:57.500Z,0.00
2018-11-21T02:27:57.562Z,0.00
2018-11-21T02:28:57.567Z,0.00
2018-11-21T02:29:57.600Z,0.00
2018-11-21T02:30:57.640Z,0.00
2018-11-21T02:31:57.677Z,0.00
2018-11-21T02:32:57.707Z,0.00
2018-11-21T02:33:57.749Z,0.00
2018-11-21T02:34:57.784Z,0.00
2018-11-21T02:35:57.811Z,0.00
2018-11-21T02:36:57.843Z,0.00
2018-11-21T02:37:57.878Z,0.00
2018-11-21T02:38:57.914Z,0.00
2018-11-21T02:39:57.958Z,0.00
2018-11-21T02:40:57.984Z,0.00
2018-11-21T02:41:58.018Z,0.00
2018-11-21T02:42:58.058Z,0.00
2018-11-21T02:43:58.088Z,0.00
2018-11-21T02:44:58.122Z,0.00
2018-11-21T02:45:58.163Z,0.00
2018-11-21T02:46:58.189Z,0.00
2018-11-21T02:47:58.227Z,0.00
2018-11-21T02:48:58.304Z,0.00
2018-11-21T02:49:58.351Z,0.00
2018-11-21T02:50:58.339Z,0.00
2018-11-21T02:51:58.363Z,0.00
2018-11-21T02:52:58.398Z,0.00
2018-11-21T02:53:58.433Z,0.00
2018-11-21T02:54:58.468Z,0.00
2018-11-21T02:55:58.502Z,0.00
2018-11-21T02:56:58.540Z,0.00
2018-11-21T02:57:58.571Z,0.00
2018-11-21T02:58:58.605Z,0.00
2018-11-21T02:59:58.641Z,0.00
2018-11-21T03:00:58.699Z,0.00
2018-11-21T03:01:58.711Z,0.00
2018-11-21T03:02:58.748Z,0.00
2018-11-21T03:03:58.780Z,0.00
2018-11-21T03:04:58.814Z,0.00
2018-11-21T03:05:58.853Z,0.00
2018-11-21T03:06:58.883Z,0.00
2018-11-21T03:07:58.917Z,0.00
2018-11-21T03:08:58.954Z,0.00
2018-11-21T03:09:58.987Z,0.00
2018-11-21T03:10:59.035Z,0.00
2018-11-21T03:11:59.057Z,0.00
2018-11-21T03:12:59.092Z,0.00
2018-11-21T03:13:59.131Z,0.00
2018-11-21T03:14:59.162Z,0.00
2018-11-21T03:15:59.196Z,0.00
2018-11-21T03:16:59.233Z,0.00
2018-11-21T03:17:59.266Z,0.00
2018-11-21T03:18:59.301Z,0.00
2018-11-21T03:19:59.339Z,0.00
2018-11-21T03:20:59.370Z,0.00
2018-11-21T03:21:59.406Z,0.00
2018-11-21T03:22:59.442Z,0.00
2018-11-21T03:23:59.472Z,0.00
2018-11-21T03:24:59.508Z,0.00
2018-11-21T03:25:59.544Z,0.00
2018-11-21T03:26:59.582Z,0.00
2018-11-21T03:27:59.612Z,0.00
2018-11-21T03:28:59.646Z,0.00
2018-11-21T03:29:59.681Z,0.00
2018-11-21T03:30:59.723Z,0.00
2018-11-21T03:31:59.757Z,0.00
2018-11-21T03:32:59.786Z,0.00
2018-11-21T03:33:59.822Z,0.00
2018-11-21T03:34:59.857Z,0.00
2018-11-21T03:35:59.894Z,0.00
2018-11-21T03:36:59.926Z,0.00
2018-11-21T03:37:59.979Z,0.00
2018-11-21T03:38:59.994Z,0.00
2018-11-21T03:40:00.033Z,0.00
2018-11-21T03:41:00.221Z,0.00
2018-11-21T03:42:00.101Z,0.00
2018-11-21T03:43:00.134Z,0.00
2018-11-21T03:44:00.169Z,0.00
2018-11-21T03:45:00.204Z,0.00
2018-11-21T03:46:00.239Z,0.00
2018-11-21T03:47:00.275Z,0.00
2018-11-21T03:48:00.313Z,0.00
2018-11-21T03:49:00.345Z,0.00
2018-11-21T03:50:00.380Z,0.00
2018-11-21T03:51:00.425Z,0.00
2018-11-21T03:52:00.456Z,0.00
2018-11-21T03:53:00.482Z,0.00
2018-11-21T03:54:00.518Z,0.00
2018-11-21T03:55:00.555Z,0.00
2018-11-21T03:56:00.588Z,0.00
2018-11-21T03:57:00.621Z,0.00
2018-11-21T03:58:00.656Z,0.00
2018-11-21T03:59:00.692Z,0.00
2018-11-21T04:00:00.727Z,0.00
2018-11-21T04:01:00.761Z,0.00
2018-11-21T04:02:00.798Z,0.00
2018-11-21T04:03:00.852Z,0.00
2018-11-21T04:04:00.867Z,0.00
2018-11-21T04:05:00.902Z,0.00
2018-11-21T04:06:00.949Z,0.00
2018-11-21T04:07:00.971Z,0.00
2018-11-21T04:08:01.009Z,0.00
2018-11-21T04:09:01.044Z,0.00
2018-11-21T04:10:01.078Z,0.00
2018-11-21T04:11:01.115Z,0.00
2018-11-21T04:12:01.151Z,0.00
2018-11-21T04:13:01.184Z,0.00
2018-11-21T04:14:01.220Z,0.00
2018-11-21T04:15:01.253Z,0.00
2018-11-21T04:16:01.294Z,0.00
2018-11-21T04:17:01.327Z,0.00
2018-11-21T04:18:01.361Z,0.00
2018-11-21T04:19:01.396Z,0.00
2018-11-21T04:20:01.429Z,0.00
2018-11-21T04:21:01.467Z,0.00
2018-11-21T04:22:01.509Z,0.00
2018-11-21T04:23:01.536Z,0.00
2018-11-21T04:24:01.610Z,0.00
2018-11-21T04:25:01.615Z,0.00
2018-11-21T04:26:01.649Z,0.00
2018-11-21T04:27:01.680Z,0.00
2018-11-21T04:28:01.725Z,0.00
2018-11-21T04:29:01.751Z,0.00
2018-11-21T04:30:01.783Z,0.00
2018-11-21T04:31:01.824Z,0.00
2018-11-21T04:32:01.852Z,0.00
2018-11-21T04:33:01.886Z,0.00
2018-11-21T04:34:01.923Z,0.00
2018-11-21T04:35:01.957Z,0.00
2018-11-21T04:36:01.999Z,0.00
2018-11-21T04:37:02.028Z,0.00
2018-11-21T04:38:02.064Z,0.00
2018-11-21T04:39:02.096Z,0.00
2018-11-21T04:40:02.133Z,0.00
2018-11-21T04:41:02.169Z,0.00
2018-11-21T04:42:02.206Z,0.00
2018-11-21T04:43:02.238Z,0.00
2018-11-21T04:44:02.274Z,0.00
2018-11-21T04:45:02.315Z,0.00
2018-11-21T04:46:02.345Z,0.00
2018-11-21T04:47:02.407Z,0.00
2018-11-21T04:48:02.419Z,0.00
2018-11-21T04:49:02.461Z,0.00
2018-11-21T04:50:02.513Z,0.00
2018-11-21T04:51:02.530Z,0.00
2018-11-21T04:52:02.559Z,0.00
2018-11-21T04:53:02.593Z,0.00
2018-11-21T04:54:02.631Z,0.00
2018-11-21T04:55:02.663Z,0.00
2018-11-21T04:56:02.702Z,0.00
2018-11-21T04:57:02.739Z,0.00
2018-11-21T04:58:02.775Z,0.00
2018-11-21T04:59:02.804Z,0.00
2018-11-21T05:00:02.839Z,0.00
2018-11-21T05:01:02.884Z,0.00
2018-11-21T05:02:02.911Z,0.00
2018-11-21T05:03:02.946Z,0.00
2018-11-21T05:04:02.986Z,0.00
2018-11-21T05:05:03.017Z,0.00
2018-11-21T05:06:03.051Z,0.00
2018-11-21T05:07:03.161Z,0.00
2018-11-21T05:08:03.255Z,0.00
2018-11-21T05:09:03.158Z,0.00
2018-11-21T05:10:03.194Z,0.00
2018-11-21T05:11:03.230Z,0.00
2018-11-21T05:12:03.272Z,0.00
2018-11-21T05:13:03.299Z,0.00
2018-11-21T05:14:03.333Z,0.00
2018-11-21T05:15:03.390Z,0.00
2018-11-21T05:16:03.405Z,0.00
2018-11-21T05:17:03.442Z,0.00
2018-11-21T05:18:03.475Z,0.00
2018-11-21T05:19:03.512Z,0.00
2018-11-21T05:20:03.545Z,0.00
2018-11-21T05:21:03.603Z,0.00
2018-11-21T05:22:03.625Z,0.00
2018-11-21T05:23:03.653Z,0.00
2018-11-21T05:24:03.694Z,0.00
2018-11-21T05:25:03.722Z,0.00
2018-11-21T05:26:03.780Z,0.00
2018-11-21T05:27:03.795Z,0.00
2018-11-21T05:28:03.828Z,0.00
2018-11-21T05:29:03.864Z,0.00
2018-11-21T05:30:03.915Z,0.00
2018-11-21T05:31:03.938Z,0.00
2018-11-21T05:32:03.972Z,0.00
2018-11-21T05:33:04.006Z,0.00
2018-11-21T05:34:04.041Z,0.00
2018-11-21T05:35:04.074Z,0.00
2018-11-21T05:36:04.112Z,0.00
2018-11-21T05:37:04.147Z,0.00
2018-11-21T05:38:04.180Z,0.00
2018-11-21T05:39:04.218Z,0.00
2018-11-21T05:40:04.249Z,0.00
2018-11-21T05:41:04.286Z,0.00
2018-11-21T05:42:04.322Z,0.00
2018-11-21T05:43:04.356Z,0.00
2018-11-21T05:44:04.398Z,0.00
2018-11-21T05:45:04.427Z,0.00
2018-11-21T05:46:04.463Z,0.00
2018-11-21T05:47:04.496Z,0.00
2018-11-21T05:48:04.532Z,0.00
2018-11-21T05:49:04.568Z,0.00
2018-11-21T05:50:04.604Z,0.00
2018-11-21T05:51:04.638Z,0.00
2018-11-21T05:52:04.674Z,0.00
2018-11-21T05:53:04.710Z,0.00
2018-11-21T05:54:04.746Z,0.00
2018-11-21T05:55:04.780Z,0.00
2018-11-21T05:56:04.814Z,0.00
2018-11-21T05:57:04.850Z,0.00
2018-11-21T05:58:04.891Z,0.00
2018-11-21T05:59:04.924Z,0.00
2018-11-21T06:00:04.967Z,0.00
2018-11-21T06:01:04.996Z,0.00
2018-11-21T06:02:05.037Z,0.00
2018-11-21T06:03:05.164Z,0.00
2018-11-21T06:04:05.100Z,0.00
2018-11-21T06:05:05.137Z,0.00
2018-11-21T06:06:09.971Z,0.00
2018-11-21T06:07:05.202Z,0.00
2018-11-21T06:08:05.238Z,0.00
2018-11-21T06:09:05.274Z,0.00
2018-11-21T06:10:05.319Z,0.00
2018-11-21T06:11:05.346Z,0.00
2018-11-21T06:12:05.383Z,0.00
2018-11-21T06:13:05.415Z,0.00
2018-11-21T06:14:05.454Z,0.00
2018-11-21T06:15:05.486Z,0.00
2018-11-21T06:16:05.562Z,0.00
2018-11-21T06:17:05.562Z,0.00
2018-11-21T06:18:05.596Z,0.00
2018-11-21T06:19:05.626Z,0.00
2018-11-21T06:20:05.663Z,0.00
2018-11-21T06:21:05.697Z,0.00
2018-11-21T06:22:05.732Z,0.00
2018-11-21T06:23:05.768Z,0.00
2018-11-21T06:24:05.803Z,0.00
2018-11-21T06:25:05.862Z,0.00
2018-11-21T06:26:05.875Z,0.00
2018-11-21T06:27:05.912Z,0.00
2018-11-21T06:28:05.958Z,0.00
2018-11-21T06:29:05.981Z,0.00
2018-11-21T06:30:06.014Z,0.00
2018-11-21T06:31:06.051Z,0.00
2018-11-21T06:32:06.088Z,0.00
2018-11-21T06:33:06.123Z,0.00
2018-11-21T06:34:06.158Z,0.00
2018-11-21T06:35:06.191Z,0.00
2018-11-21T06:36:06.226Z,0.00
2018-11-21T06:37:06.263Z,0.00
2018-11-21T06:38:06.300Z,0.00
2018-11-21T06:39:06.331Z,0.00
2018-11-21T06:40:06.369Z,0.00
2018-11-21T06:41:06.404Z,0.00
2018-11-21T06:42:06.440Z,0.00
2018-11-21T06:43:06.477Z,0.00
2018-11-21T06:44:06.510Z,0.00
2018-11-21T06:45:06.545Z,0.00
2018-11-21T06:46:06.579Z,0.00
2018-11-21T06:47:06.615Z,0.00
2018-11-21T06:48:06.652Z,0.00
2018-11-21T06:49:06.691Z,0.00
2018-11-21T06:50:06.720Z,0.00
2018-11-21T06:51:06.754Z,0.00
2018-11-21T06:52:06.792Z,0.00
2018-11-21T06:53:06.832Z,0.00
2018-11-21T06:54:06.861Z,0.00
2018-11-21T06:55:06.901Z,5.63
2018-11-21T06:56:06.931Z,5.63
2018-11-21T06:57:06.968Z,5.63
2018-11-21T06:58:07.004Z,5.63
2018-11-21T06:59:07.046Z,5.63
2018-11-21T07:00:07.075Z,5.63
2018-11-21T07:01:07.138Z,5.63
2018-11-21T07:02:07.146Z,5.63
2018-11-21T07:03:07.180Z,5.63
2018-11-21T07:04:07.336Z,5.63
2018-11-21T07:05:07.250Z,5.63
2018-11-21T07:06:07.284Z,11.25
2018-11-21T07:07:07.328Z,11.25
2018-11-21T07:08:07.364Z,11.25
2018-11-21T07:09:07.391Z,11.25
2018-11-21T07:10:07.432Z,11.25
2018-11-21T07:11:07.472Z,11.25
2018-11-21T07:12:07.506Z,11.25
2018-11-21T07:13:11.014Z,11.25
2018-11-21T07:14:07.567Z,16.88
2018-11-21T07:15:07.601Z,16.88
2018-11-21T07:16:07.637Z,11.25
2018-11-21T07:17:07.672Z,11.25
2018-11-21T07:18:07.709Z,11.25
2018-11-21T07:19:07.743Z,16.88
2018-11-21T07:20:07.784Z,11.25
2018-11-21T07:21:07.822Z,16.88
2018-11-21T07:22:07.855Z,16.88
2018-11-21T07:23:07.885Z,16.88
2018-11-21T07:24:07.923Z,16.88
2018-11-21T07:25:07.954Z,16.88
2018-11-21T07:26:07.997Z,16.88
2018-11-21T07:27:08.024Z,16.88
2018-11-21T07:28:13.008Z,22.50
2018-11-21T07:29:08.103Z,22.50
2018-11-21T07:30:08.139Z,22.50
2018-11-21T07:31:08.165Z,22.50
2018-11-21T07:32:08.205Z,22.50
2018-11-21T07:33:08.237Z,22.50
2018-11-21T07:34:08.276Z,22.50
2018-11-21T07:35:08.308Z,22.50
2018-11-21T07:36:08.399Z,22.50
2018-11-21T07:37:08.383Z,28.13
2018-11-21T07:38:08.451Z,28.13
2018-11-21T07:39:08.447Z,28.13
2018-11-21T07:40:08.484Z,28.13
2018-11-21T07:41:08.519Z,28.13
2018-11-21T07:42:08.559Z,28.13
2018-11-21T07:43:08.588Z,28.13
2018-11-21T07:44:08.627Z,33.75
2018-11-21T07:45:08.659Z,28.13
2018-11-21T07:46:08.698Z,28.13
2018-11-21T07:47:08.731Z,33.75
2018-11-21T07:48:08.771Z,33.75
2018-11-21T07:49:08.984Z,33.75
2018-11-21T07:50:08.840Z,39.38
2018-11-21T07:51:08.873Z,33.75
2018-11-21T07:52:08.905Z,39.38
2018-11-21T07:53:08.944Z,39.38
2018-11-21T07:54:08.978Z,39.38
2018-11-21T07:55:09.012Z,45.00
2018-11-21T07:56:09.051Z,45.00
2018-11-21T07:57:09.087Z,45.00
2018-11-21T07:58:09.132Z,45.00
2018-11-21T07:59:09.158Z,45.00
2018-11-21T08:00:09.189Z,39.38
2018-11-21T08:01:09.224Z,39.38
2018-11-21T08:02:09.314Z,45.00
2018-11-21T08:03:09.295Z,45.00
2018-11-21T08:04:09.334Z,45.00
2018-11-21T08:05:09.368Z,45.00
2018-11-21T08:06:09.401Z,39.38
2018-11-21T08:07:09.436Z,39.38
2018-11-21T08:08:09.576Z,45.00
2018-11-21T08:09:09.508Z,50.63
2018-11-21T08:10:09.545Z,50.63
2018-11-21T08:11:09.577Z,45.00
2018-11-21T08:12:09.624Z,45.00
2018-11-21T08:13:09.662Z,50.63
2018-11-21T08:14:09.687Z,56.25
2018-11-21T08:15:09.724Z,56.25
2018-11-21T08:16:09.756Z,56.25
2018-11-21T08:17:09.792Z,56.25
2018-11-21T08:18:09.829Z,50.63
2018-11-21T08:19:09.865Z,56.25
2018-11-21T08:20:09.898Z,56.25
2018-11-21T08:21:09.933Z,50.63
2018-11-21T08:22:09.968Z,45.00
2018-11-21T08:23:10.003Z,45.00
2018-11-21T08:24:10.041Z,50.63
2018-11-21T08:25:10.077Z,50.63
2018-11-21T08:26:10.114Z,50.63
2018-11-21T08:27:10.151Z,45.00
2018-11-21T08:28:10.181Z,45.00
2018-11-21T08:29:10.226Z,45.00
2018-11-21T08:30:10.262Z,50.63
2018-11-21T08:31:10.292Z,50.63
2018-11-21T08:32:10.323Z,50.63
2018-11-21T08:33:10.357Z,50.63
2018-11-21T08:34:10.403Z,45.00
2018-11-21T08:35:10.429Z,39.38
2018-11-21T08:36:10.487Z,39.38
2018-11-21T08:37:10.651Z,39.38
2018-11-21T08:38:10.542Z,39.38
2018-11-21T08:39:10.571Z,50.63
2018-11-21T08:40:10.608Z,50.63
2018-11-21T08:41:10.645Z,50.63
2018-11-21T08:42:10.686Z,50.63
2018-11-21T08:43:10.741Z,50.63
2018-11-21T08:44:10.750Z,50.63
2018-11-21T08:45:10.786Z,50.63
2018-11-21T08:46:10.827Z,50.63
2018-11-21T08:47:10.855Z,56.25
2018-11-21T08:48:10.891Z,56.25
2018-11-21T08:49:10.931Z,50.63
2018-11-21T08:50:10.963Z,50.63
2018-11-21T08:51:11.000Z,50.63
2018-11-21T08:52:11.034Z,50.63
2018-11-21T08:53:11.070Z,50.63
2018-11-21T08:54:11.106Z,56.25
2018-11-21T08:55:11.144Z,56.25
2018-11-21T08:56:11.181Z,61.88
2018-11-21T08:57:11.212Z,67.50
2018-11-21T08:58:11.249Z,61.88
2018-11-21T08:59:11.286Z,61.88
2018-11-21T09:00:11.343Z,61.88
2018-11-21T09:01:11.355Z,61.88
2018-11-21T09:02:11.390Z,56.25
2018-11-21T09:03:11.424Z,56.25
2018-11-21T09:04:11.463Z,61.88
2018-11-21T09:05:11.497Z,61.88
2018-11-21T09:06:11.535Z,67.50
2018-11-21T09:07:11.567Z,67.50
2018-11-21T09:08:11.619Z,61.88
2018-11-21T09:09:11.642Z,67.50
2018-11-21T09:10:11.674Z,67.50
2018-11-21T09:11:11.712Z,67.50
2018-11-21T09:12:15.311Z,73.13
2018-11-21T09:13:11.789Z,73.13
2018-11-21T09:14:11.816Z,73.13
2018-11-21T09:15:11.856Z,73.13
2018-11-21T09:16:11.890Z,67.50
2018-11-21T09:17:11.923Z,67.50
2018-11-21T09:18:11.963Z,67.50
2018-11-21T09:19:11.994Z,73.13
2018-11-21T09:20:12.074Z,73.13
2018-11-21T09:21:12.065Z,73.13
2018-11-21T09:22:12.109Z,73.13
2018-11-21T09:23:12.137Z,73.13
2018-11-21T09:24:12.181Z,73.13
2018-11-21T09:25:12.212Z,73.13
2018-11-21T09:26:12.249Z,73.13
2018-11-21T09:27:12.280Z,78.75
2018-11-21T09:28:12.324Z,84.38
2018-11-21T09:29:12.353Z,90.00
2018-11-21T09:30:12.396Z,90.00
2018-11-21T09:31:12.422Z,84.38
2018-11-21T09:32:12.459Z,84.38
2018-11-21T09:33:12.495Z,95.63
2018-11-21T09:34:12.538Z,84.38
2018-11-21T09:35:12.568Z,78.75
2018-11-21T09:36:12.601Z,84.38
2018-11-21T09:37:12.690Z,78.75
2018-11-21T09:38:12.681Z,73.13
2018-11-21T09:39:12.728Z,78.75
2018-11-21T09:40:12.745Z,73.13
2018-11-21T09:41:12.781Z,78.75
2018-11-21T09:42:12.822Z,84.38
2018-11-21T09:43:12.851Z,84.38
2018-11-21T09:44:12.888Z,101.25
2018-11-21T09:45:12.939Z,95.63
2018-11-21T09:46:17.198Z,84.38
2018-11-21T09:47:12.997Z,84.38
2018-11-21T09:48:13.154Z,84.38
2018-11-21T09:49:13.068Z,90.00
2018-11-21T09:50:13.106Z,90.00
2018-11-21T09:51:13.139Z,90.00
2018-11-21T09:52:13.176Z,90.00
2018-11-21T09:53:13.219Z,78.75
2018-11-21T09:54:13.248Z,78.75
2018-11-21T09:55:13.332Z,90.00
2018-11-21T09:56:13.328Z,95.63
2018-11-21T09:57:13.435Z,84.38
2018-11-21T09:58:13.397Z,78.75
2018-11-21T09:59:13.434Z,73.13
2018-11-21T10:00:13.465Z,73.13
2018-11-21T10:01:13.551Z,78.75
2018-11-21T10:02:13.545Z,84.38
2018-11-21T10:03:13.570Z,84.38
2018-11-21T10:04:13.613Z,84.38
2018-11-21T10:05:13.645Z,84.38
2018-11-21T10:06:13.682Z,84.38
2018-11-21T10:07:13.719Z,78.75
2018-11-21T10:08:13.752Z,78.75
2018-11-21T10:09:13.789Z,78.75
2018-11-21T10:10:13.826Z,78.75
2018-11-21T10:11:13.861Z,95.63
2018-11-21T10:12:13.896Z,95.63
2018-11-21T10:13:13.931Z,78.75
2018-11-21T10:14:13.968Z,84.38
2018-11-21T10:15:14.004Z,95.63
2018-11-21T10:16:14.040Z,101.25
2018-11-21T10:17:14.080Z,95.63
2018-11-21T10:18:14.112Z,90.00
2018-11-21T10:19:14.147Z,90.00
2018-11-21T10:20:14.235Z,90.00
2018-11-21T10:21:14.220Z,78.75
2018-11-21T10:22:14.257Z,78.75
2018-11-21T10:23:14.293Z,84.38
2018-11-21T10:24:14.329Z,84.38
2018-11-21T10:25:14.366Z,84.38
2018-11-21T10:26:14.400Z,90.00
2018-11-21T10:27:14.585Z,90.00
2018-11-21T10:28:14.488Z,84.38
2018-11-21T10:29:14.507Z,84.38
2018-11-21T10:30:14.548Z,84.38
2018-11-21T10:31:14.587Z,84.38
2018-11-21T10:32:14.623Z,84.38
2018-11-21T10:33:14.658Z,95.63
2018-11-21T10:34:14.689Z,95.63
2018-11-21T10:35:14.743Z,90.00
2018-11-21T10:36:14.762Z,95.63
2018-11-21T10:37:14.797Z,106.88
2018-11-21T10:38:14.856Z,118.13
2018-11-21T10:39:14.870Z,101.25
2018-11-21T10:40:14.906Z,90.00
2018-11-21T10:41:14.949Z,95.63
2018-11-21T10:42:14.977Z,90.00
2018-11-21T10:43:15.020Z,84.38
2018-11-21T10:44:15.051Z,84.38
2018-11-21T10:45:15.084Z,84.38
2018-11-21T10:46:15.124Z,78.75
2018-11-21T10:47:15.158Z,90.00
2018-11-21T10:48:15.192Z,106.88
2018-11-21T10:49:15.233Z,112.50
2018-11-21T10:50:15.270Z,106.88
2018-11-21T10:51:15.310Z,106.88
2018-11-21T10:52:15.341Z,106.88
2018-11-21T10:53:15.538Z,106.88
2018-11-21T10:54:15.416Z,118.13
2018-11-21T10:55:15.447Z,118.13
2018-11-21T10:56:15.492Z,101.25
2018-11-21T10:57:15.518Z,106.88
2018-11-21T10:58:15.555Z,95.63
2018-11-21T10:59:15.590Z,112.50
2018-11-21T11:00:15.626Z,135.00
2018-11-21T11:01:15.665Z,118.13
2018-11-21T11:02:15.698Z,112.50
2018-11-21T11:03:15.734Z,101.25
2018-11-21T11:04:15.794Z,95.63
2018-11-21T11:05:15.814Z,106.88
2018-11-21T11:06:15.843Z,106.88
2018-11-21T11:07:15.877Z,106.88
2018-11-21T11:08:15.915Z,112.50
2018-11-21T11:09:16.923Z,112.50
2018-11-21T11:10:15.989Z,118.13
2018-11-21T11:11:16.023Z,129.38
2018-11-21T11:12:16.062Z,140.63
2018-11-21T11:13:16.099Z,146.25
2018-11-21T11:14:16.132Z,157.50
2018-11-21T11:15:16.168Z,151.88
2018-11-21T11:16:16.211Z,140.63
2018-11-21T11:17:16.240Z,140.63
2018-11-21T11:18:16.275Z,140.63
2018-11-21T11:19:16.312Z,146.25
2018-11-21T11:20:16.355Z,140.63
2018-11-21T11:21:16.405Z,135.00
2018-11-21T11:22:16.424Z,135.00
2018-11-21T11:23:16.460Z,129.38
2018-11-21T11:24:16.595Z,118.13
2018-11-21T11:25:16.529Z,112.50
2018-11-21T11:26:16.567Z,112.50
2018-11-21T11:27:16.599Z,112.50
2018-11-21T11:28:16.645Z,101.25
2018-11-21T11:29:16.676Z,95.63
2018-11-21T11:30:16.810Z,90.00
2018-11-21T11:31:16.795Z,101.25
2018-11-21T11:32:16.781Z,118.13
2018-11-21T11:33:16.817Z,112.50
2018-11-21T11:34:16.853Z,106.88
2018-11-21T11:35:16.888Z,101.25
2018-11-21T11:36:16.923Z,118.13
2018-11-21T11:37:16.963Z,140.63
2018-11-21T11:38:16.997Z,140.63
2018-11-21T11:39:17.032Z,135.00
2018-11-21T11:40:17.079Z,112.50
2018-11-21T11:41:17.120Z,112.50
2018-11-21T11:42:17.152Z,123.75
2018-11-21T11:43:17.185Z,129.38
2018-11-21T11:44:17.214Z,129.38
2018-11-21T11:45:17.249Z,140.63
2018-11-21T11:46:17.290Z,140.63
2018-11-21T11:47:17.322Z,118.13
2018-11-21T11:48:17.370Z,112.50
2018-11-21T11:49:17.394Z,118.13
2018-11-21T11:50:17.429Z,135.00
2018-11-21T11:51:17.473Z,140.63
2018-11-21T11:52:17.501Z,146.25
2018-11-21T11:53:17.537Z,151.88
2018-11-21T11:54:17.573Z,140.63
2018-11-21T11:55:17.609Z,129.38
2018-11-21T11:56:17.655Z,135.00
2018-11-21T11:57:17.748Z,140.63
2018-11-21T11:58:17.719Z,135.00
2018-11-21T11:59:17.755Z,135.00
2018-11-21T12:00:17.793Z,135.00
2018-11-21T12:01:17.827Z,135.00
2018-11-21T12:02:17.861Z,135.00
2018-11-21T12:03:17.902Z,123.75
2018-11-21T12:04:17.936Z,123.75
2018-11-21T12:05:17.975Z,123.75
2018-11-21T12:06:18.016Z,123.75
2018-11-21T12:07:18.045Z,123.75
2018-11-21T12:08:18.082Z,118.13
2018-11-21T12:09:18.117Z,118.13
2018-11-21T12:10:18.155Z,129.38
2018-11-21T12:11:18.188Z,129.38
2018-11-21T12:12:18.234Z,123.75
2018-11-21T12:13:18.262Z,118.13
2018-11-21T12:14:18.306Z,135.00
2018-11-21T12:15:18.334Z,140.63
2018-11-21T12:16:18.369Z,140.63
2018-11-21T12:17:18.407Z,140.63
2018-11-21T12:18:18.444Z,135.00
2018-11-21T12:19:18.480Z,118.13
2018-11-21T12:20:18.515Z,123.75
2018-11-21T12:21:18.553Z,123.75
2018-11-21T12:22:18.693Z,129.38
2018-11-21T12:23:18.624Z,129.38
2018-11-21T12:24:18.657Z,135.00
2018-11-21T12:25:18.700Z,140.63
2018-11-21T12:26:18.742Z,140.63
2018-11-21T12:27:18.768Z,135.00
2018-11-21T12:28:18.813Z,129.38
2018-11-21T12:29:18.847Z,129.38
2018-11-21T12:30:18.877Z,123.75
2018-11-21T12:31:18.913Z,129.38
2018-11-21T12:32:18.950Z,106.88
2018-11-21T12:33:18.985Z,84.38
2018-11-21T12:34:19.024Z,101.25
2018-11-21T12:35:19.061Z,112.50
2018-11-21T12:36:19.098Z,95.63
2018-11-21T12:37:19.131Z,101.25
2018-11-21T12:38:19.171Z,95.63
2018-11-21T12:39:19.203Z,90.00
2018-11-21T12:40:19.239Z,78.75
2018-11-21T12:41:19.274Z,73.13
2018-11-21T12:42:19.311Z,73.13
2018-11-21T12:43:19.349Z,78.75
2018-11-21T12:44:19.384Z,84.38
2018-11-21T12:45:19.422Z,84.38
2018-11-21T12:46:19.465Z,78.75
2018-11-21T12:47:19.491Z,84.38
2018-11-21T12:48:19.532Z,84.38
2018-11-21T12:49:19.573Z,84.38
2018-11-21T12:50:19.615Z,78.75
2018-11-21T12:51:19.685Z,73.13
2018-11-21T12:52:19.671Z,73.13
2018-11-21T12:53:19.710Z,78.75
2018-11-21T12:54:19.748Z,84.38
2018-11-21T12:55:19.784Z,90.00
2018-11-21T12:56:19.817Z,78.75
2018-11-21T12:57:19.860Z,84.38
2018-11-21T12:58:20.103Z,90.00
2018-11-21T12:59:19.927Z,84.38
2018-11-21T13:00:19.990Z,78.75
2018-11-21T13:01:19.997Z,73.13
2018-11-21T13:02:20.039Z,67.50
2018-11-21T13:03:20.069Z,67.50